sensor_id;sensor_type;location;lat;lon;timestamp;pressure;altitude;pressure_sealevel;temperature;humidity
57859;BME280;49153;45.568;11.894;2023-01-31T00:01:27;101755.44;;;0.55;79.48
57859;BME280;49153;45.568;11.894;2023-01-31T00:03:54;101742.63;;;0.43;79.35
57859;BME280;49153;45.568;11.894;2023-01-31T00:06:28;101738.28;;;0.43;79.67
57859;BME280;49153;45.568;11.894;2023-01-31T00:08:55;101750.38;;;0.48;79.86
57859;BME280;49153;45.568;11.894;2023-01-31T00:11:22;101735.75;;;0.39;80.03
57859;BME280;49153;45.568;11.894;2023-01-31T00:13:49;101772.72;;;0.58;79.46
57859;BME280;49153;45.568;11.894;2023-01-31T00:16:16;101778.81;;;0.55;79.65
57859;BME280;49153;45.568;11.894;2023-01-31T00:18:42;101741.81;;;0.38;79.42
57859;BME280;49153;45.568;11.894;2023-01-31T00:21:13;101757.31;;;0.42;79.20
57859;BME280;49153;45.568;11.894;2023-01-31T00:23:40;101753.06;;;0.40;79.64
57859;BME280;49153;45.568;11.894;2023-01-31T00:26:20;101769.47;;;0.40;79.39
57859;BME280;49153;45.568;11.894;2023-01-31T00:28:47;101779.88;;;0.39;79.68
57859;BME280;49153;45.568;11.894;2023-01-31T00:31:14;101765.16;;;0.41;79.50
57859;BME280;49153;45.568;11.894;2023-01-31T00:33:41;101761.75;;;0.36;79.84
57859;BME280;49153;45.568;11.894;2023-01-31T00:36:19;101777.34;;;0.34;79.85
57859;BME280;49153;45.568;11.894;2023-01-31T00:38:47;101767.84;;;0.32;79.98
57859;BME280;49153;45.568;11.894;2023-01-31T00:41:13;101744.69;;;0.18;79.86
57859;BME280;49153;45.568;11.894;2023-01-31T00:43:39;101758.44;;;0.26;80.19
57859;BME280;49153;45.568;11.894;2023-01-31T00:46:05;101770.41;;;0.35;80.07
57859;BME280;49153;45.568;11.894;2023-01-31T00:48:31;101766.91;;;0.39;79.96
57859;BME280;49153;45.568;11.894;2023-01-31T00:50:59;101774.75;;;0.34;80.11
57859;BME280;49153;45.568;11.894;2023-01-31T00:53:24;101777.47;;;0.22;79.87
57859;BME280;49153;45.568;11.894;2023-01-31T00:55:54;101781.81;;;0.23;80.33
57859;BME280;49153;45.568;11.894;2023-01-31T00:58:23;101768.88;;;0.19;80.47
57859;BME280;49153;45.568;11.894;2023-01-31T01:00:48;101758.50;;;0.20;80.68
57859;BME280;49153;45.568;11.894;2023-01-31T01:03:14;101769.69;;;0.22;80.71
57859;BME280;49153;45.568;11.894;2023-01-31T01:05:40;101746.53;;;0.07;80.60
57859;BME280;49153;45.568;11.894;2023-01-31T01:08:05;101778.28;;;0.27;80.81
57859;BME280;49153;45.568;11.894;2023-01-31T01:10:31;101765.38;;;0.21;81.23
57859;BME280;49153;45.568;11.894;2023-01-31T01:12:57;101785.13;;;0.34;80.80
57859;BME280;49153;45.568;11.894;2023-01-31T01:15:22;101773.22;;;0.18;80.68
57859;BME280;49153;45.568;11.894;2023-01-31T01:17:48;101805.00;;;0.35;80.72
57859;BME280;49153;45.568;11.894;2023-01-31T01:20:15;101776.78;;;0.08;80.27
57859;BME280;49153;45.568;11.894;2023-01-31T01:22:41;101801.75;;;0.17;80.26
57859;BME280;49153;45.568;11.894;2023-01-31T01:25:07;101790.63;;;0.10;80.47
57859;BME280;49153;45.568;11.894;2023-01-31T01:27:33;101787.34;;;-0.10;80.49
57859;BME280;49153;45.568;11.894;2023-01-31T01:29:58;101789.13;;;-0.15;80.25
57859;BME280;49153;45.568;11.894;2023-01-31T01:32:24;101796.09;;;-0.20;81.61
57859;BME280;49153;45.568;11.894;2023-01-31T01:34:51;101823.84;;;-0.30;81.15
57859;BME280;49153;45.568;11.894;2023-01-31T01:37:16;101793.88;;;-0.58;80.83
57859;BME280;49153;45.568;11.894;2023-01-31T01:39:49;101819.66;;;-0.43;81.53
57859;BME280;49153;45.568;11.894;2023-01-31T01:42:19;101829.22;;;-0.51;81.81
57859;BME280;49153;45.568;11.894;2023-01-31T01:52:33;101820.69;;;-0.64;81.96
57859;BME280;49153;45.568;11.894;2023-01-31T01:55:09;101824.25;;;-0.77;81.85
57859;BME280;49153;45.568;11.894;2023-01-31T01:57:39;101827.69;;;-0.75;82.32
57859;BME280;49153;45.568;11.894;2023-01-31T02:00:16;101811.28;;;-0.77;82.42
57859;BME280;49153;45.568;11.894;2023-01-31T02:02:45;101803.47;;;-0.71;82.58
57859;BME280;49153;45.568;11.894;2023-01-31T02:05:16;101812.06;;;-0.66;82.71
57859;BME280;49153;45.568;11.894;2023-01-31T02:07:42;101814.75;;;-0.76;82.01
57859;BME280;49153;45.568;11.894;2023-01-31T02:10:18;101813.84;;;-0.74;83.21
57859;BME280;49153;45.568;11.894;2023-01-31T02:12:45;101809.53;;;-0.70;83.16
57859;BME280;49153;45.568;11.894;2023-01-31T02:15:12;101815.53;;;-0.64;83.25
57859;BME280;49153;45.568;11.894;2023-01-31T02:17:37;101809.44;;;-0.61;83.18
57859;BME280;49153;45.568;11.894;2023-01-31T02:34:03;101825.06;;;-0.70;82.98
57859;BME280;49153;45.568;11.894;2023-01-31T02:44:58;101838.06;;;-0.75;83.33
57859;BME280;49153;45.568;11.894;2023-01-31T02:55:29;101838.00;;;-0.69;83.35
57859;BME280;49153;45.568;11.894;2023-01-31T02:58:17;101812.16;;;-0.78;83.05
57859;BME280;49153;45.568;11.894;2023-01-31T03:00:45;101829.34;;;-0.68;82.93
57859;BME280;49153;45.568;11.894;2023-01-31T03:03:21;101840.53;;;-0.61;83.23
57859;BME280;49153;45.568;11.894;2023-01-31T03:08:36;101841.47;;;-0.73;82.69
57859;BME280;49153;45.568;11.894;2023-01-31T03:11:04;101828.66;;;-0.91;82.31
57859;BME280;49153;45.568;11.894;2023-01-31T03:13:43;101854.53;;;-0.90;82.56
57859;BME280;49153;45.568;11.894;2023-01-31T03:16:41;101857.13;;;-0.88;83.65
57859;BME280;49153;45.568;11.894;2023-01-31T03:19:33;101838.97;;;-0.83;83.47
57859;BME280;49153;45.568;11.894;2023-01-31T03:22:06;101833.91;;;-1.05;82.72
57859;BME280;49153;45.568;11.894;2023-01-31T03:24:34;101860.59;;;-0.92;83.46
57859;BME280;49153;45.568;11.894;2023-01-31T03:27:00;101856.28;;;-0.93;83.29
57859;BME280;49153;45.568;11.894;2023-01-31T03:29:33;101860.63;;;-1.00;83.57
57859;BME280;49153;45.568;11.894;2023-01-31T03:32:10;101858.97;;;-1.08;82.89
57859;BME280;49153;45.568;11.894;2023-01-31T03:34:38;101852.13;;;-1.17;83.17
57859;BME280;49153;45.568;11.894;2023-01-31T03:40:11;101872.91;;;-1.34;82.83
57859;BME280;49153;45.568;11.894;2023-01-31T03:42:57;101874.59;;;-1.28;83.43
57859;BME280;49153;45.568;11.894;2023-01-31T03:45:48;101847.03;;;-1.37;84.12
57859;BME280;49153;45.568;11.894;2023-01-31T03:48:18;101853.91;;;-1.36;83.84
57859;BME280;49153;45.568;11.894;2023-01-31T03:50:50;101859.06;;;-1.30;84.26
57859;BME280;49153;45.568;11.894;2023-01-31T03:56:26;101871.09;;;-1.16;84.61
57859;BME280;49153;45.568;11.894;2023-01-31T03:58:58;101839.25;;;-1.34;84.82
57859;BME280;49153;45.568;11.894;2023-01-31T04:01:27;101861.63;;;-1.23;84.27
57859;BME280;49153;45.568;11.894;2023-01-31T04:04:04;101877.97;;;-1.14;84.60
57859;BME280;49153;45.568;11.894;2023-01-31T04:06:31;101876.28;;;-1.16;84.72
57859;BME280;49153;45.568;11.894;2023-01-31T04:08:57;101875.41;;;-1.12;85.27
57859;BME280;49153;45.568;11.894;2023-01-31T04:11:25;101883.13;;;-1.11;84.98
57859;BME280;49153;45.568;11.894;2023-01-31T04:13:50;101862.47;;;-1.17;84.93
57859;BME280;49153;45.568;11.894;2023-01-31T04:16:16;101870.25;;;-1.17;84.42
57859;BME280;49153;45.568;11.894;2023-01-31T04:18:41;101873.69;;;-1.16;84.21
57859;BME280;49153;45.568;11.894;2023-01-31T04:21:07;101877.97;;;-1.12;84.42
57859;BME280;49153;45.568;11.894;2023-01-31T04:23:34;101863.28;;;-1.09;84.62
57859;BME280;49153;45.568;11.894;2023-01-31T04:25:59;101858.09;;;-1.09;83.89
57859;BME280;49153;45.568;11.894;2023-01-31T04:28:25;101869.31;;;-1.02;83.97
57859;BME280;49153;45.568;11.894;2023-01-31T04:30:55;101857.25;;;-1.06;84.15
57859;BME280;49153;45.568;11.894;2023-01-31T04:33:21;101862.41;;;-1.09;83.83
57859;BME280;49153;45.568;11.894;2023-01-31T04:35:47;101853.00;;;-1.16;84.32
57859;BME280;49153;45.568;11.894;2023-01-31T04:38:14;101865.00;;;-1.11;84.43
57859;BME280;49153;45.568;11.894;2023-01-31T04:40:39;101855.56;;;-1.18;84.20
57859;BME280;49153;45.568;11.894;2023-01-31T04:43:05;101862.44;;;-1.15;85.28
57859;BME280;49153;45.568;11.894;2023-01-31T04:45:30;101873.66;;;-1.13;85.59
57859;BME280;49153;45.568;11.894;2023-01-31T04:47:56;101872.81;;;-1.21;85.93
57859;BME280;49153;45.568;11.894;2023-01-31T04:50:21;101851.31;;;-1.28;86.15
57859;BME280;49153;45.568;11.894;2023-01-31T04:52:50;101871.06;;;-1.10;86.43
57859;BME280;49153;45.568;11.894;2023-01-31T04:55:16;101872.78;;;-1.09;85.47
57859;BME280;49153;45.568;11.894;2023-01-31T04:57:41;101861.59;;;-1.13;85.43
57859;BME280;49153;45.568;11.894;2023-01-31T05:00:08;101883.09;;;-1.03;85.55
57859;BME280;49153;45.568;11.894;2023-01-31T05:02:33;101865.03;;;-1.12;85.79
57859;BME280;49153;45.568;11.894;2023-01-31T05:04:59;101872.78;;;-1.11;84.72
57859;BME280;49153;45.568;11.894;2023-01-31T05:07:25;101873.66;;;-1.12;85.16
57859;BME280;49153;45.568;11.894;2023-01-31T05:09:50;101894.31;;;-1.04;84.98
57859;BME280;49153;45.568;11.894;2023-01-31T05:12:16;101894.31;;;-1.03;85.30
57859;BME280;49153;45.568;11.894;2023-01-31T05:14:41;101901.19;;;-0.99;85.51
57859;BME280;49153;45.568;11.894;2023-01-31T05:17:09;101893.41;;;-0.94;85.75
57859;BME280;49153;45.568;11.894;2023-01-31T05:19:35;101888.22;;;-0.94;85.40
57859;BME280;49153;45.568;11.894;2023-01-31T05:22:01;101896.81;;;-0.89;85.61
57859;BME280;49153;45.568;11.894;2023-01-31T05:24:29;101907.19;;;-0.88;85.02
57859;BME280;49153;45.568;11.894;2023-01-31T05:26:56;101898.56;;;-0.88;85.09
57859;BME280;49153;45.568;11.894;2023-01-31T05:29:27;101906.31;;;-0.87;84.86
57859;BME280;49153;45.568;11.894;2023-01-31T05:31:54;101901.16;;;-0.88;84.61
57859;BME280;49153;45.568;11.894;2023-01-31T05:34:19;101892.53;;;-0.92;84.62
57859;BME280;49153;45.568;11.894;2023-01-31T05:36:45;101892.56;;;-0.98;84.57
57859;BME280;49153;45.568;11.894;2023-01-31T05:39:14;101905.47;;;-0.87;85.18
57859;BME280;49153;45.568;11.894;2023-01-31T05:41:39;101888.25;;;-1.00;84.96
57859;BME280;49153;45.568;11.894;2023-01-31T05:44:05;101894.34;;;-1.06;84.89
57859;BME280;49153;45.568;11.894;2023-01-31T05:46:30;101909.88;;;-1.01;84.98
57859;BME280;49153;45.568;11.894;2023-01-31T05:48:55;101907.25;;;-0.98;85.23
57859;BME280;49153;45.568;11.894;2023-01-31T05:51:21;101905.53;;;-0.96;85.84
57859;BME280;49153;45.568;11.894;2023-01-31T05:53:46;101900.34;;;-0.99;85.59
57859;BME280;49153;45.568;11.894;2023-01-31T05:56:13;101919.28;;;-0.88;85.37
57859;BME280;49153;45.568;11.894;2023-01-31T05:58:38;101920.13;;;-0.86;85.73
57859;BME280;49153;45.568;11.894;2023-01-31T06:01:04;101905.47;;;-0.87;85.59
57859;BME280;49153;45.568;11.894;2023-01-31T06:03:29;101916.69;;;-0.87;85.19
57859;BME280;49153;45.568;11.894;2023-01-31T06:05:54;101920.09;;;-0.85;84.87
57859;BME280;49153;45.568;11.894;2023-01-31T06:08:20;101927.00;;;-0.83;84.53
57859;BME280;49153;45.568;11.894;2023-01-31T06:10:45;101922.75;;;-0.92;84.50
57859;BME280;49153;45.568;11.894;2023-01-31T06:13:11;101930.53;;;-0.95;84.78
57859;BME280;49153;45.568;11.894;2023-01-31T06:15:44;101937.47;;;-0.97;84.69
57859;BME280;49153;45.568;11.894;2023-01-31T06:18:12;101930.53;;;-0.95;85.86
57859;BME280;49153;45.568;11.894;2023-01-31T06:20:38;101922.81;;;-1.01;85.68
57859;BME280;49153;45.568;11.894;2023-01-31T06:23:04;101948.66;;;-0.91;85.16
57859;BME280;49153;45.568;11.894;2023-01-31T06:25:30;101940.09;;;-1.06;84.76
57859;BME280;49153;45.568;11.894;2023-01-31T06:27:56;101953.00;;;-1.05;84.99
57859;BME280;49153;45.568;11.894;2023-01-31T06:30:21;101932.31;;;-1.11;85.23
57859;BME280;49153;45.568;11.894;2023-01-31T06:32:47;101934.91;;;-1.06;85.14
57859;BME280;49153;45.568;11.894;2023-01-31T06:35:12;101966.75;;;-0.88;85.15
57859;BME280;49153;45.568;11.894;2023-01-31T06:37:38;101965.91;;;-0.91;85.29
57859;BME280;49153;45.568;11.894;2023-01-31T06:40:04;101972.81;;;-0.93;84.86
57859;BME280;49153;45.568;11.894;2023-01-31T06:42:30;101973.69;;;-0.93;85.24
57859;BME280;49153;45.568;11.894;2023-01-31T06:44:55;101973.72;;;-1.02;85.30
57859;BME280;49153;45.568;11.894;2023-01-31T06:47:20;101971.13;;;-1.05;85.52
57859;BME280;49153;45.568;11.894;2023-01-31T06:49:46;101997.00;;;-0.97;85.67
57859;BME280;49153;45.568;11.894;2023-01-31T06:52:11;101990.09;;;-0.98;85.71
57859;BME280;49153;45.568;11.894;2023-01-31T06:54:37;102001.31;;;-0.93;85.83
57859;BME280;49153;45.568;11.894;2023-01-31T06:57:02;102008.22;;;-0.92;86.00
57859;BME280;49153;45.568;11.894;2023-01-31T06:59:27;102017.66;;;-0.82;86.30
57859;BME280;49153;45.568;11.894;2023-01-31T07:01:53;102014.19;;;-0.75;86.24
57859;BME280;49153;45.568;11.894;2023-01-31T07:04:18;102004.66;;;-0.73;86.53
57859;BME280;49153;45.568;11.894;2023-01-31T07:06:44;102026.25;;;-0.65;86.12
57859;BME280;49153;45.568;11.894;2023-01-31T07:09:10;102023.66;;;-0.65;85.94
57859;BME280;49153;45.568;11.894;2023-01-31T07:11:36;102023.63;;;-0.63;86.34
57859;BME280;49153;45.568;11.894;2023-01-31T07:14:02;102030.50;;;-0.56;86.55
57859;BME280;49153;45.568;11.894;2023-01-31T07:16:27;102034.78;;;-0.48;86.81
57859;BME280;49153;45.568;11.894;2023-01-31T07:18:54;102029.56;;;-0.38;87.14
57859;BME280;49153;45.568;11.894;2023-01-31T07:21:20;102030.38;;;-0.30;86.84
57859;BME280;49153;45.568;11.894;2023-01-31T07:23:46;102022.59;;;-0.30;87.17
57859;BME280;49153;45.568;11.894;2023-01-31T07:26:12;102036.34;;;-0.18;86.80
57859;BME280;49153;45.568;11.894;2023-01-31T07:28:40;102035.47;;;-0.11;86.82
57859;BME280;49153;45.568;11.894;2023-01-31T07:31:11;102026.81;;;-0.11;87.07
57859;BME280;49153;45.568;11.894;2023-01-31T07:33:38;102032.78;;;0.00;87.01
57859;BME280;49153;45.568;11.894;2023-01-31T07:36:05;102032.72;;;0.06;87.10
57859;BME280;49153;45.568;11.894;2023-01-31T07:38:31;102036.13;;;0.14;87.41
57859;BME280;49153;45.568;11.894;2023-01-31T07:41:00;102025.72;;;0.17;87.37
57859;BME280;49153;45.568;11.894;2023-01-31T07:43:27;102026.50;;;0.28;87.31
57859;BME280;49153;45.568;11.894;2023-01-31T07:45:53;102023.00;;;0.32;87.30
57859;BME280;49153;45.568;11.894;2023-01-31T07:48:19;102030.69;;;0.43;87.34
57859;BME280;49153;45.568;11.894;2023-01-31T07:51:06;102031.47;;;0.56;87.60
57859;BME280;49153;45.568;11.894;2023-01-31T07:53:34;102035.72;;;0.63;87.85
57859;BME280;49153;45.568;11.894;2023-01-31T07:56:08;102026.16;;;0.68;87.83
57859;BME280;49153;45.568;11.894;2023-01-31T07:58:35;102009.72;;;0.66;87.65
57859;BME280;49153;45.568;11.894;2023-01-31T08:01:00;102030.31;;;0.84;87.69
57859;BME280;49153;45.568;11.894;2023-01-31T08:03:45;102037.97;;;0.98;87.86
57859;BME280;49153;45.568;11.894;2023-01-31T08:06:11;102028.31;;;1.07;88.46
57859;BME280;49153;45.568;11.894;2023-01-31T08:08:38;102017.91;;;1.10;88.00
57859;BME280;49153;45.568;11.894;2023-01-31T08:11:04;102028.94;;;1.29;88.45
57859;BME280;49153;45.568;11.894;2023-01-31T08:13:33;102034.88;;;1.39;88.44
57859;BME280;49153;45.568;11.894;2023-01-31T08:16:00;102041.66;;;1.52;88.03
57859;BME280;49153;45.568;11.894;2023-01-31T08:18:26;102027.66;;;1.59;87.96
57859;BME280;49153;45.568;11.894;2023-01-31T08:20:51;102026.78;;;1.63;87.46
57859;BME280;49153;45.568;11.894;2023-01-31T08:23:17;102024.91;;;1.69;87.79
57859;BME280;49153;45.568;11.894;2023-01-31T08:25:42;102042.00;;;1.90;88.17
57859;BME280;49153;45.568;11.894;2023-01-31T08:28:08;102041.78;;;2.04;87.93
57859;BME280;49153;45.568;11.894;2023-01-31T08:30:38;102044.13;;;2.21;88.63
57859;BME280;49153;45.568;11.894;2023-01-31T08:33:04;102049.94;;;2.36;87.94
57859;BME280;49153;45.568;11.894;2023-01-31T08:35:29;102056.66;;;2.49;88.03
57859;BME280;49153;45.568;11.894;2023-01-31T08:37:55;102058.19;;;2.63;87.31
57859;BME280;49153;45.568;11.894;2023-01-31T08:40:20;102053.56;;;2.78;87.38
57859;BME280;49153;45.568;11.894;2023-01-31T08:42:54;102060.13;;;2.99;87.44
57859;BME280;49153;45.568;11.894;2023-01-31T08:45:20;102061.59;;;3.14;87.25
57859;BME280;49153;45.568;11.894;2023-01-31T08:47:45;102057.00;;;3.26;86.79
57859;BME280;49153;45.568;11.894;2023-01-31T08:50:11;102065.38;;;3.42;87.15
57859;BME280;49153;45.568;11.894;2023-01-31T08:52:36;102062.44;;;3.57;86.37
57859;BME280;49153;45.568;11.894;2023-01-31T08:55:02;102063.00;;;3.71;86.36
57859;BME280;49153;45.568;11.894;2023-01-31T08:57:30;102066.22;;;3.84;85.31
57859;BME280;49153;45.568;11.894;2023-01-31T08:59:55;102058.16;;;3.95;85.31
57859;BME280;49153;45.568;11.894;2023-01-31T09:02:21;102059.56;;;4.08;84.94
57859;BME280;49153;45.568;11.894;2023-01-31T09:04:46;102059.22;;;4.23;84.08
57859;BME280;49153;45.568;11.894;2023-01-31T09:07:12;102072.72;;;4.40;85.17
57859;BME280;49153;45.568;11.894;2023-01-31T09:09:37;102056.78;;;4.51;84.82
57859;BME280;49153;45.568;11.894;2023-01-31T09:12:03;102063.22;;;4.72;84.03
57859;BME280;49153;45.568;11.894;2023-01-31T09:14:28;102064.69;;;4.83;83.07
57859;BME280;49153;45.568;11.894;2023-01-31T09:16:55;102063.47;;;4.96;84.00
57859;BME280;49153;45.568;11.894;2023-01-31T09:19:21;102064.84;;;5.09;83.65
57859;BME280;49153;45.568;11.894;2023-01-31T09:21:48;102054.81;;;5.25;83.71
57859;BME280;49153;45.568;11.894;2023-01-31T09:24:13;102057.91;;;5.39;83.27
57859;BME280;49153;45.568;11.894;2023-01-31T09:26:38;102052.34;;;5.50;82.30
57859;BME280;49153;45.568;11.894;2023-01-31T09:29:04;102064.34;;;5.59;82.09
57859;BME280;49153;45.568;11.894;2023-01-31T09:31:29;102058.69;;;5.72;82.36
57859;BME280;49153;45.568;11.894;2023-01-31T09:33:55;102067.03;;;5.85;81.44
57859;BME280;49153;45.568;11.894;2023-01-31T09:36:22;102066.59;;;6.00;81.94
57859;BME280;49153;45.568;11.894;2023-01-31T09:38:53;102071.31;;;6.17;81.23
57859;BME280;49153;45.568;11.894;2023-01-31T09:41:36;102066.53;;;6.29;80.76
57859;BME280;49153;45.568;11.894;2023-01-31T09:46:35;102066.88;;;6.45;79.28
57859;BME280;49153;45.568;11.894;2023-01-31T09:49:05;102061.19;;;6.59;79.42
57859;BME280;49153;45.568;11.894;2023-01-31T09:51:33;102071.13;;;6.75;79.07
57859;BME280;49153;45.568;11.894;2023-01-31T09:53:59;102067.31;;;6.84;77.67
57859;BME280;49153;45.568;11.894;2023-01-31T09:56:31;102065.25;;;6.94;77.50
57859;BME280;49153;45.568;11.894;2023-01-31T09:59:22;102056.09;;;7.05;77.43
57859;BME280;49153;45.568;11.894;2023-01-31T10:05:19;102062.06;;;7.34;77.06
57859;BME280;49153;45.568;11.894;2023-01-31T10:08:12;102061.56;;;7.47;76.31
57859;BME280;49153;45.568;11.894;2023-01-31T10:10:50;102063.59;;;7.62;76.31
57859;BME280;49153;45.568;11.894;2023-01-31T10:13:33;102061.38;;;7.75;75.25
57859;BME280;49153;45.568;11.894;2023-01-31T10:18:41;102049.25;;;7.94;74.38
57859;BME280;49153;45.568;11.894;2023-01-31T10:21:12;102054.81;;;8.09;73.53
57859;BME280;49153;45.568;11.894;2023-01-31T10:26:21;102046.13;;;8.28;73.31
57859;BME280;49153;45.568;11.894;2023-01-31T10:28:59;102051.09;;;8.36;71.83
57859;BME280;49153;45.568;11.894;2023-01-31T10:31:29;102058.69;;;8.43;71.88
57859;BME280;49153;45.568;11.894;2023-01-31T10:34:25;102045.16;;;8.53;73.34
57859;BME280;49153;45.568;11.894;2023-01-31T10:39:53;102049.84;;;8.86;72.44
57859;BME280;49153;45.568;11.894;2023-01-31T10:42:37;102042.41;;;8.96;71.50
57859;BME280;49153;45.568;11.894;2023-01-31T10:45:21;102045.53;;;9.04;70.96
57859;BME280;49153;45.568;11.894;2023-01-31T10:47:54;102037.47;;;9.09;69.68
57859;BME280;49153;45.568;11.894;2023-01-31T10:50:33;102029.16;;;9.18;70.49
57859;BME280;49153;45.568;11.894;2023-01-31T10:53:12;102036.69;;;9.25;68.81
57859;BME280;49153;45.568;11.894;2023-01-31T10:56:06;102032.88;;;9.32;69.20
57859;BME280;49153;45.568;11.894;2023-01-31T10:58:33;102026.31;;;9.41;69.27
57859;BME280;49153;45.568;11.894;2023-01-31T11:00:59;102024.22;;;9.49;68.52
57859;BME280;49153;45.568;11.894;2023-01-31T11:03:27;102028.41;;;9.53;68.71
57859;BME280;49153;45.568;11.894;2023-01-31T11:05:55;102020.75;;;9.67;68.01
57859;BME280;49153;45.568;11.894;2023-01-31T11:10:54;102018.78;;;9.90;68.30
57859;BME280;49153;45.568;11.894;2023-01-31T11:13:20;102016.41;;;10.02;69.02
57859;BME280;49153;45.568;11.894;2023-01-31T11:15:47;102016.56;;;10.18;68.78
57859;BME280;49153;45.568;11.894;2023-01-31T11:18:30;102013.34;;;10.30;67.69
57859;BME280;49153;45.568;11.894;2023-01-31T11:20:58;102007.72;;;10.19;66.57
57859;BME280;49153;45.568;11.894;2023-01-31T11:23:28;102004.16;;;10.20;66.93
57859;BME280;49153;45.568;11.894;2023-01-31T11:25:55;102004.63;;;10.28;66.66
57859;BME280;49153;45.568;11.894;2023-01-31T11:28:26;102002.00;;;10.28;67.07
57859;BME280;49153;45.568;11.894;2023-01-31T11:30:53;101997.81;;;10.41;66.99
57859;BME280;49153;45.568;11.894;2023-01-31T11:36:14;101993.06;;;10.48;65.22
57859;BME280;49153;45.568;11.894;2023-01-31T11:38:40;101993.78;;;10.51;66.12
57859;BME280;49153;45.568;11.894;2023-01-31T11:41:29;101989.56;;;10.65;66.69
57859;BME280;49153;45.568;11.894;2023-01-31T11:44:11;101985.06;;;10.84;66.06
57859;BME280;49153;45.568;11.894;2023-01-31T11:49:27;101980.84;;;10.97;66.56
57859;BME280;49153;45.568;11.894;2023-01-31T11:51:54;101980.28;;;11.08;66.65
57859;BME280;49153;45.568;11.894;2023-01-31T11:54:24;101976.28;;;11.16;64.95
57859;BME280;49153;45.568;11.894;2023-01-31T11:56:51;101981.75;;;11.13;63.46
57859;BME280;49153;45.568;11.894;2023-01-31T11:59:19;101975.53;;;11.14;64.71
57859;BME280;49153;45.568;11.894;2023-01-31T12:01:50;101974.41;;;11.18;64.21
57859;BME280;49153;45.568;11.894;2023-01-31T12:04:22;101971.59;;;11.21;64.30
57859;BME280;49153;45.568;11.894;2023-01-31T12:09:26;101972.22;;;11.42;65.35
57859;BME280;49153;45.568;11.894;2023-01-31T12:11:58;101966.88;;;11.59;64.98
57859;BME280;49153;45.568;11.894;2023-01-31T12:14:36;101962.88;;;11.68;64.64
57859;BME280;49153;45.568;11.894;2023-01-31T12:17:01;101953.66;;;11.75;64.29
57859;BME280;49153;45.568;11.894;2023-01-31T12:19:54;101958.47;;;11.84;64.58
57859;BME280;49153;45.568;11.894;2023-01-31T12:31:10;101943.22;;;12.03;64.17
57859;BME280;49153;45.568;11.894;2023-01-31T13:01:09;101914.75;;;11.93;62.14
57859;BME280;49153;45.568;11.894;2023-01-31T13:08:34;101920.25;;;11.74;63.00
57859;BME280;49153;45.568;11.894;2023-01-31T13:11:14;101914.44;;;11.67;63.28
57859;BME280;49153;45.568;11.894;2023-01-31T13:13:54;101904.72;;;11.68;63.65
57859;BME280;49153;45.568;11.894;2023-01-31T13:16:34;101894.16;;;11.68;64.20
57859;BME280;49153;45.568;11.894;2023-01-31T13:19:04;101895.09;;;11.67;63.18
57859;BME280;49153;45.568;11.894;2023-01-31T13:21:39;101896.78;;;11.68;63.16
57859;BME280;49153;45.568;11.894;2023-01-31T13:24:22;101897.53;;;11.70;63.90
57859;BME280;49153;45.568;11.894;2023-01-31T13:26:55;101900.81;;;11.75;63.64
57859;BME280;49153;45.568;11.894;2023-01-31T13:29:28;101900.53;;;11.64;63.11
57859;BME280;49153;45.568;11.894;2023-01-31T13:32:11;101910.97;;;11.51;62.59
57859;BME280;49153;45.568;11.894;2023-01-31T13:35:04;101912.06;;;11.31;62.75
57859;BME280;49153;45.568;11.894;2023-01-31T13:37:36;101916.13;;;11.21;62.79
57859;BME280;49153;45.568;11.894;2023-01-31T13:40:16;101918.53;;;11.10;63.44
57859;BME280;49153;45.568;11.894;2023-01-31T13:42:43;101907.25;;;10.91;63.47
57859;BME280;49153;45.568;11.894;2023-01-31T13:45:21;101914.63;;;10.84;63.84
57859;BME280;49153;45.568;11.894;2023-01-31T13:47:55;101914.19;;;10.76;64.28
57859;BME280;49153;45.568;11.894;2023-01-31T13:50:41;101937.56;;;10.84;64.88
57859;BME280;49153;45.568;11.894;2023-01-31T13:53:15;101935.75;;;10.84;64.96
57859;BME280;49153;45.568;11.894;2023-01-31T13:55:45;101932.59;;;10.78;65.16
57859;BME280;49153;45.568;11.894;2023-01-31T13:58:19;101909.31;;;10.69;65.15
57859;BME280;49153;45.568;11.894;2023-01-31T14:01:31;101924.50;;;10.81;65.19
57859;BME280;49153;45.568;11.894;2023-01-31T14:09:36;101914.50;;;10.70;65.21
57859;BME280;49153;45.568;11.894;2023-01-31T14:22:19;101910.47;;;10.63;65.45
57859;BME280;49153;45.568;11.894;2023-01-31T14:27:22;101908.34;;;10.54;65.43
57859;BME280;49153;45.568;11.894;2023-01-31T14:51:49;101912.69;;;10.03;66.24
57859;BME280;49153;45.568;11.894;2023-01-31T14:57:28;101918.16;;;9.82;66.52
57859;BME280;49153;45.568;11.894;2023-01-31T15:00:04;101906.78;;;9.62;66.71
57859;BME280;49153;45.568;11.894;2023-01-31T15:07:35;101935.28;;;9.54;67.34
57859;BME280;49153;45.568;11.894;2023-01-31T15:10:01;101926.47;;;9.55;67.37
57859;BME280;49153;45.568;11.894;2023-01-31T15:12:50;101932.72;;;9.53;67.02
57859;BME280;49153;45.568;11.894;2023-01-31T15:15:24;101921.78;;;9.43;66.99
57859;BME280;49153;45.568;11.894;2023-01-31T15:17:51;101928.88;;;9.41;66.71
57859;BME280;49153;45.568;11.894;2023-01-31T15:20:27;101907.41;;;9.31;67.23
57859;BME280;49153;45.568;11.894;2023-01-31T15:22:57;101912.97;;;9.44;67.42
57859;BME280;49153;45.568;11.894;2023-01-31T15:25:42;101911.66;;;9.53;67.12
57859;BME280;49153;45.568;11.894;2023-01-31T15:28:11;101900.41;;;9.49;66.98
57859;BME280;49153;45.568;11.894;2023-01-31T15:30:39;101917.44;;;9.61;67.14
57859;BME280;49153;45.568;11.894;2023-01-31T15:33:18;101925.63;;;9.55;65.95
57859;BME280;49153;45.568;11.894;2023-01-31T15:36:29;101926.97;;;9.45;65.95
57859;BME280;49153;45.568;11.894;2023-01-31T15:41:17;101928.06;;;9.41;66.13
57859;BME280;49153;45.568;11.894;2023-01-31T15:43:44;101919.94;;;9.26;65.84